Terminal Aerodrome Forecast
Issued by NWS

Home | Current Version | Previous Version | Text Only | Print | Product List | Glossary On
Versions: 1 2 3 4 5 6 7 8 9 10 11 12 13 14 15 16 17 18 19 20 21 22 23
700
FTUS41 KPBZ 120537
TAFDUJ
TAF
KDUJ 120537Z 1206/1306 25007KT P6SM FEW035
     FM122100 25008KT 5SM -SN BKN020
     FM130200 29015G25KT 3SM -SHSN OVC012 PROB30 1302/1306 1/2SM
      SHSN OVC005=

USA.gov is the U.S. government's official web portal to all federal, state and local government web resources and services.